createdAt,value
2023-02-22T00:00:44.768Z,4.22
2023-02-22T00:02:27.148Z,3.35
2023-02-22T00:03:59.315Z,3.33
2023-02-22T00:05:31.626Z,2.92
2023-02-22T00:07:04.000Z,3.30
2023-02-22T00:08:37.589Z,3.22
2023-02-22T00:10:13.449Z,3.80
2023-02-22T00:11:47.675Z,2.85
2023-02-22T00:13:22.892Z,3.00
2023-02-22T00:14:55.105Z,3.58
2023-02-22T00:16:27.390Z,3.85
2023-02-22T00:17:59.590Z,2.38
2023-02-22T00:19:31.977Z,3.50
2023-02-22T00:21:10.636Z,3.00
2023-02-22T00:22:46.388Z,2.78
2023-02-22T00:24:29.650Z,2.97
2023-02-22T00:27:34.065Z,3.13
2023-02-22T00:29:06.239Z,2.78
2023-02-22T00:30:38.335Z,2.55
2023-02-22T00:32:10.580Z,2.00
2023-02-22T00:33:45.605Z,2.58
2023-02-22T00:35:21.439Z,3.50
2023-02-22T00:36:53.541Z,2.63
2023-02-22T00:38:25.931Z,2.92
2023-02-22T00:39:58.056Z,3.17
2023-02-22T00:41:30.417Z,3.30
2023-02-22T00:43:04.954Z,3.08
2023-02-22T00:44:37.224Z,3.67
2023-02-22T00:46:09.865Z,2.67
2023-02-22T00:47:41.981Z,2.85
2023-02-22T00:49:14.040Z,2.45
2023-02-22T00:50:48.773Z,3.20
2023-02-22T00:52:20.932Z,2.47
2023-02-22T00:53:53.099Z,3.97
2023-02-22T00:55:28.655Z,3.30
2023-02-22T00:57:01.892Z,3.65
2023-02-22T00:58:33.958Z,3.50
2023-02-22T01:00:12.649Z,2.40
2023-02-22T01:01:44.929Z,3.50
2023-02-22T01:04:50.710Z,4.10
2023-02-22T01:06:23.041Z,4.00
2023-02-22T01:07:58.326Z,3.28
2023-02-22T01:09:30.455Z,5.53
2023-02-22T01:11:02.565Z,3.35
2023-02-22T01:12:35.317Z,4.18
2023-02-22T01:14:09.728Z,4.05
2023-02-22T01:15:44.885Z,4.55
2023-02-22T01:17:17.057Z,5.22
2023-02-22T01:18:49.312Z,5.00
2023-02-22T01:20:23.030Z,4.43
2023-02-22T01:21:55.245Z,5.35
2023-02-22T01:23:27.858Z,5.03
2023-02-22T01:25:04.047Z,5.22
2023-02-22T01:26:37.949Z,4.63
2023-02-22T01:28:10.791Z,3.92
2023-02-22T01:29:42.944Z,4.00
2023-02-22T01:31:15.570Z,4.80
2023-02-22T01:32:51.161Z,4.65
2023-02-22T01:34:24.642Z,3.65
2023-02-22T01:35:56.729Z,3.95
2023-02-22T01:37:28.860Z,3.35
2023-02-22T01:39:00.928Z,5.47
2023-02-22T01:40:38.334Z,3.97
2023-02-22T01:42:10.510Z,4.70
2023-02-22T01:43:42.688Z,3.58
2023-02-22T01:45:30.215Z,3.77
2023-02-22T01:47:05.046Z,3.92
2023-02-22T01:48:42.169Z,4.22
2023-02-22T01:50:14.532Z,3.65
2023-02-22T01:51:50.606Z,3.58
2023-02-22T01:53:33.211Z,3.35
2023-02-22T01:55:05.683Z,3.88
2023-02-22T01:56:42.138Z,3.50
2023-02-22T01:58:16.697Z,3.38
2023-02-22T01:59:52.331Z,3.22
2023-02-22T02:01:26.558Z,4.80
2023-02-22T02:03:06.544Z,4.32
2023-02-22T02:04:38.796Z,3.70
2023-02-22T02:06:14.360Z,4.00
2023-02-22T02:07:46.650Z,3.90
2023-02-22T02:09:37.379Z,2.78
2023-02-22T02:11:10.128Z,4.47
2023-02-22T02:12:47.667Z,3.80
2023-02-22T02:14:19.891Z,4.57
2023-02-22T02:15:55.218Z,3.72
2023-02-22T02:17:27.341Z,3.10
2023-02-22T02:18:59.481Z,4.07
2023-02-22T02:20:42.983Z,4.13
2023-02-22T02:22:30.252Z,3.28
2023-02-22T02:24:32.892Z,3.30
2023-02-22T02:26:29.482Z,2.95
2023-02-22T02:28:22.726Z,3.53
2023-02-22T02:30:16.233Z,4.13
2023-02-22T02:32:10.257Z,4.20
2023-02-22T02:34:05.660Z,4.72
2023-02-22T02:35:53.664Z,4.07
2023-02-22T02:37:44.285Z,3.42
2023-02-22T02:39:45.276Z,4.85
2023-02-22T02:41:26.640Z,3.92
2023-02-22T02:43:18.447Z,4.22
2023-02-22T02:45:17.783Z,3.85
2023-02-22T02:47:04.026Z,3.58
2023-02-22T02:48:42.014Z,3.80
2023-02-22T02:50:23.744Z,4.28
2023-02-22T02:51:58.229Z,3.70
2023-02-22T02:53:37.241Z,3.40
2023-02-22T02:55:11.404Z,3.72
2023-02-22T02:56:47.604Z,3.60
2023-02-22T02:58:22.905Z,4.22
2023-02-22T02:59:55.058Z,4.10
2023-02-22T03:01:29.724Z,4.03
2023-02-22T03:03:05.068Z,4.03
2023-02-22T03:04:56.881Z,4.22
2023-02-22T03:06:47.024Z,3.63
2023-02-22T03:08:57.118Z,3.30
2023-02-22T03:10:55.596Z,3.72
2023-02-22T03:12:49.506Z,4.72
2023-02-22T03:14:40.161Z,3.20
2023-02-22T03:16:15.058Z,4.50
2023-02-22T03:18:06.963Z,2.22
2023-02-22T03:19:52.903Z,4.15
2023-02-22T03:21:43.448Z,3.45
2023-02-22T03:23:40.352Z,3.20
2023-02-22T03:25:24.809Z,3.50
2023-02-22T03:27:12.824Z,3.08
2023-02-22T03:28:51.615Z,3.80
2023-02-22T03:30:33.163Z,2.65
2023-02-22T03:32:09.851Z,3.08
2023-02-22T03:33:52.293Z,2.40
2023-02-22T03:35:31.258Z,3.22
2023-02-22T03:37:29.001Z,3.47
2023-02-22T03:39:04.390Z,2.15
2023-02-22T03:40:43.462Z,3.38
2023-02-22T03:42:23.776Z,3.00
2023-02-22T03:44:02.018Z,3.10
2023-02-22T03:45:36.743Z,3.38
2023-02-22T03:47:12.930Z,2.95
2023-02-22T03:48:57.346Z,3.00
2023-02-22T03:50:35.669Z,3.22
2023-02-22T03:52:09.832Z,2.65
2023-02-22T03:53:48.120Z,3.20
2023-02-22T03:55:20.928Z,2.90
2023-02-22T03:56:56.971Z,3.13
2023-02-22T03:58:32.084Z,3.25
2023-02-22T04:00:12.468Z,3.22
2023-02-22T04:01:51.105Z,3.10
2023-02-22T04:03:23.976Z,3.40
2023-02-22T04:04:58.194Z,4.30
2023-02-22T04:06:30.760Z,3.20
2023-02-22T04:08:06.484Z,3.53
2023-02-22T04:09:38.885Z,3.17
2023-02-22T04:11:11.369Z,3.08
2023-02-22T04:12:44.152Z,3.10
2023-02-22T04:14:16.423Z,4.10
2023-02-22T04:15:48.579Z,2.97
2023-02-22T04:17:20.756Z,3.67
2023-02-22T04:18:52.847Z,3.20
2023-02-22T04:20:25.706Z,3.25
2023-02-22T04:22:01.392Z,2.95
2023-02-22T04:23:38.474Z,3.42
2023-02-22T04:25:10.575Z,2.17
2023-02-22T04:26:42.922Z,3.67
2023-02-22T04:28:16.224Z,3.72
2023-02-22T04:30:12.586Z,3.45
2023-02-22T04:31:45.496Z,2.70
2023-02-22T04:33:17.775Z,2.72
2023-02-22T04:34:49.878Z,2.70
2023-02-22T04:36:22.433Z,3.17
2023-02-22T04:37:54.728Z,4.28
2023-02-22T04:39:27.201Z,2.72
2023-02-22T04:40:59.782Z,2.80
2023-02-22T04:42:32.706Z,2.92
2023-02-22T04:44:05.200Z,2.53
2023-02-22T04:47:11.304Z,3.47
2023-02-22T04:48:43.909Z,3.35
2023-02-22T04:50:17.127Z,3.17
2023-02-22T04:51:49.253Z,3.50
2023-02-22T04:53:23.177Z,3.40
2023-02-22T04:54:55.247Z,3.47
2023-02-22T04:56:27.388Z,2.70
2023-02-22T04:57:59.726Z,4.07
2023-02-22T04:59:33.024Z,3.50
2023-02-22T05:01:06.482Z,3.28
2023-02-22T05:02:40.144Z,5.15
2023-02-22T05:04:12.369Z,3.75
2023-02-22T05:05:44.753Z,3.42
2023-02-22T05:07:17.796Z,3.17
2023-02-22T05:10:21.995Z,3.25
2023-02-22T05:11:54.164Z,3.03
2023-02-22T05:13:26.604Z,3.60
2023-02-22T05:14:58.746Z,3.70
2023-02-22T05:16:30.986Z,3.70
2023-02-22T05:18:03.268Z,4.00
2023-02-22T05:19:35.686Z,2.92
2023-02-22T05:21:07.923Z,3.13
2023-02-22T05:22:41.010Z,2.63
2023-02-22T05:24:13.076Z,3.55
2023-02-22T05:25:46.048Z,3.90
2023-02-22T05:27:19.297Z,3.05
2023-02-22T05:28:51.407Z,3.63
2023-02-22T05:30:28.075Z,3.90
2023-02-22T05:32:02.729Z,3.08
2023-02-22T05:33:35.022Z,3.28
2023-02-22T05:35:08.471Z,3.55
2023-02-22T05:36:40.525Z,3.70
2023-02-22T05:38:15.943Z,3.30
2023-02-22T05:39:48.026Z,3.40
2023-02-22T05:41:20.624Z,3.88
2023-02-22T05:42:53.608Z,2.42
2023-02-22T05:44:26.108Z,3.22
2023-02-22T05:45:58.372Z,3.15
2023-02-22T05:47:30.521Z,3.75
2023-02-22T05:49:02.646Z,3.47
2023-02-22T05:50:35.038Z,3.45
2023-02-22T05:52:07.147Z,3.15
2023-02-22T05:53:39.350Z,4.15
2023-02-22T05:55:13.953Z,3.47
2023-02-22T05:56:46.109Z,3.53
2023-02-22T05:58:18.476Z,3.40
2023-02-22T05:59:50.689Z,3.95
2023-02-22T06:01:23.195Z,3.83
2023-02-22T06:02:57.499Z,4.40
2023-02-22T06:04:30.570Z,3.80
2023-02-22T06:06:02.823Z,4.00
2023-02-22T06:07:34.978Z,3.22
2023-02-22T06:09:07.273Z,3.58
2023-02-22T06:10:39.479Z,4.80
2023-02-22T06:12:11.697Z,4.50
2023-02-22T06:13:50.494Z,3.63
2023-02-22T06:15:24.640Z,4.00
2023-02-22T06:16:57.729Z,4.63
2023-02-22T06:18:31.326Z,4.15
2023-02-22T06:20:03.962Z,4.32
2023-02-22T06:21:36.288Z,5.15
2023-02-22T06:23:08.428Z,4.60
2023-02-22T06:24:40.738Z,4.75
2023-02-22T06:26:16.795Z,4.15
2023-02-22T06:27:48.930Z,4.93
2023-02-22T06:29:21.095Z,6.45
2023-02-22T06:30:53.411Z,5.97
2023-02-22T06:32:25.825Z,4.90
2023-02-22T06:33:58.013Z,5.82
2023-02-22T06:35:30.284Z,5.30
2023-02-22T06:37:02.337Z,4.00
2023-02-22T06:38:34.383Z,4.33
2023-02-22T06:40:06.795Z,4.32
2023-02-22T06:41:39.114Z,5.20
2023-02-22T06:43:11.416Z,4.70
2023-02-22T06:44:43.500Z,3.83
2023-02-22T06:46:15.963Z,4.55
2023-02-22T06:47:49.748Z,5.95
2023-02-22T06:49:22.712Z,3.83
2023-02-22T06:52:27.057Z,4.00
2023-02-22T06:53:59.173Z,3.95
2023-02-22T06:55:33.107Z,4.00
2023-02-22T06:57:05.290Z,4.30
2023-02-22T06:58:37.526Z,4.75
2023-02-22T07:00:10.271Z,4.70
2023-02-22T07:01:43.649Z,5.10
2023-02-22T07:03:16.457Z,5.50
2023-02-22T07:06:20.752Z,4.13
2023-02-22T07:07:55.004Z,5.22
2023-02-22T07:09:27.137Z,3.92
2023-02-22T07:10:59.427Z,4.47
2023-02-22T07:12:31.481Z,5.10
2023-02-22T07:14:03.613Z,5.87
2023-02-22T07:15:36.125Z,4.88
2023-02-22T07:17:08.439Z,5.68
2023-02-22T07:18:40.570Z,4.97
2023-02-22T07:20:12.799Z,5.38
2023-02-22T07:21:47.979Z,6.13
2023-02-22T07:23:21.252Z,5.35
2023-02-22T07:24:53.421Z,4.68
2023-02-22T07:26:26.680Z,6.55
2023-02-22T07:27:59.735Z,5.78
2023-02-22T07:29:32.057Z,4.90
2023-02-22T07:31:05.072Z,5.70
2023-02-22T07:32:37.633Z,5.68
2023-02-22T07:34:09.910Z,4.32
2023-02-22T07:35:47.730Z,4.35
2023-02-22T07:37:21.298Z,3.45
2023-02-22T07:38:53.443Z,4.90
2023-02-22T07:40:27.116Z,3.97
2023-02-22T07:41:59.362Z,4.88
2023-02-22T07:43:34.450Z,4.10
2023-02-22T07:45:07.151Z,3.85
2023-02-22T07:46:39.272Z,4.15
2023-02-22T07:48:17.346Z,4.43
2023-02-22T07:49:50.312Z,4.50
2023-02-22T07:51:22.498Z,4.60
2023-02-22T07:52:56.310Z,3.95
2023-02-22T07:54:28.532Z,4.60
2023-02-22T07:56:02.846Z,3.97
2023-02-22T07:57:35.106Z,5.10
2023-02-22T07:59:07.282Z,3.92
2023-02-22T08:00:41.060Z,4.00
2023-02-22T08:02:17.044Z,4.63
2023-02-22T08:03:49.366Z,4.25
2023-02-22T08:05:24.520Z,4.45
2023-02-22T08:06:56.733Z,5.15
2023-02-22T08:08:29.362Z,4.30
2023-02-22T08:10:01.665Z,4.05
2023-02-22T08:11:33.995Z,3.70
2023-02-22T08:13:06.106Z,4.25
2023-02-22T08:14:38.312Z,5.50
2023-02-22T08:16:10.513Z,4.43
2023-02-22T08:17:42.601Z,4.03
2023-02-22T08:19:14.818Z,3.63
2023-02-22T08:20:48.616Z,3.42
2023-02-22T08:22:22.032Z,4.50
2023-02-22T08:23:54.497Z,4.95
2023-02-22T08:25:28.546Z,6.07
2023-02-22T08:27:00.680Z,4.72
2023-02-22T08:28:33.073Z,5.35
2023-02-22T08:30:06.467Z,3.92
2023-02-22T08:31:38.843Z,4.53
2023-02-22T08:33:19.484Z,4.30
2023-02-22T08:34:52.121Z,4.50
2023-02-22T08:36:24.280Z,4.72
2023-02-22T08:38:00.053Z,4.25
2023-02-22T08:39:32.227Z,4.93
2023-02-22T08:41:04.608Z,5.47
2023-02-22T08:42:36.685Z,5.60
2023-02-22T08:44:08.935Z,5.07
2023-02-22T08:45:41.593Z,3.95
2023-02-22T08:47:14.026Z,4.57
2023-02-22T08:48:53.289Z,3.95
2023-02-22T08:50:28.649Z,4.22
2023-02-22T08:52:00.790Z,4.50
2023-02-22T08:53:33.165Z,4.85
2023-02-22T08:55:05.848Z,4.15
2023-02-22T08:56:38.032Z,4.30
2023-02-22T08:58:10.529Z,4.75
2023-02-22T08:59:42.919Z,4.65
2023-02-22T09:01:19.315Z,4.95
2023-02-22T09:02:55.680Z,4.80
2023-02-22T09:04:27.796Z,4.75
2023-02-22T09:06:00.166Z,5.70
2023-02-22T09:07:32.592Z,5.82
2023-02-22T09:09:04.967Z,4.38
2023-02-22T09:10:37.498Z,5.55
2023-02-22T09:12:09.745Z,5.60
2023-02-22T09:13:41.897Z,5.35
2023-02-22T09:15:15.512Z,5.22
2023-02-22T09:16:47.696Z,6.45
2023-02-22T09:18:21.223Z,6.57
2023-02-22T09:19:53.488Z,5.50
2023-02-22T09:21:25.817Z,5.90
2023-02-22T09:22:58.009Z,5.45
2023-02-22T09:24:30.926Z,5.78
2023-02-22T09:26:03.007Z,6.93
2023-02-22T09:27:35.164Z,7.03
2023-02-22T09:29:10.646Z,5.57
2023-02-22T09:30:43.487Z,6.30
2023-02-22T09:33:51.024Z,6.22
2023-02-22T09:35:27.448Z,5.57
2023-02-22T09:36:59.746Z,6.15
2023-02-22T09:38:32.744Z,5.38
2023-02-22T09:40:09.903Z,6.10
2023-02-22T09:42:14.239Z,6.18
2023-02-22T09:43:49.388Z,5.25
2023-02-22T09:45:27.909Z,5.18
2023-02-22T09:47:00.595Z,5.38
2023-02-22T09:48:36.605Z,4.97
2023-02-22T09:50:16.561Z,4.30
2023-02-22T09:51:56.040Z,5.25
2023-02-22T09:53:36.179Z,4.25
2023-02-22T09:55:10.349Z,6.05
2023-02-22T09:56:46.970Z,4.93
2023-02-22T09:58:33.543Z,4.10
2023-02-22T10:00:20.182Z,3.83
2023-02-22T10:01:59.677Z,3.83
2023-02-22T10:03:31.784Z,2.80
2023-02-22T10:05:13.895Z,3.22
2023-02-22T10:07:20.919Z,4.05
2023-02-22T10:08:57.577Z,3.58
2023-02-22T10:10:35.499Z,2.97
2023-02-22T10:12:20.120Z,3.72
2023-02-22T10:14:01.477Z,3.90
2023-02-22T10:15:34.497Z,4.85
2023-02-22T10:17:10.122Z,4.55
2023-02-22T10:18:49.480Z,4.15
2023-02-22T10:20:53.796Z,4.55
2023-02-22T10:22:34.178Z,4.35
2023-02-22T10:24:19.217Z,3.58
2023-02-22T10:25:59.682Z,4.68
2023-02-22T10:27:40.530Z,4.38
2023-02-22T10:29:27.452Z,4.05
2023-02-22T10:31:06.085Z,3.28
2023-02-22T10:32:45.686Z,2.95
2023-02-22T10:34:24.904Z,3.70
2023-02-22T10:35:57.433Z,3.15
2023-02-22T10:37:32.371Z,2.97
2023-02-22T10:39:31.605Z,2.72
2023-02-22T10:41:27.202Z,2.67
2023-02-22T10:43:11.252Z,4.10
2023-02-22T10:44:43.438Z,5.00
2023-02-22T10:46:19.245Z,6.78
2023-02-22T10:47:55.736Z,6.78
2023-02-22T10:49:36.399Z,6.10
2023-02-22T10:51:10.481Z,7.00
2023-02-22T10:52:42.624Z,4.97
2023-02-22T10:54:21.423Z,4.07
2023-02-22T10:56:23.648Z,3.75
2023-02-22T10:58:08.920Z,2.80
2023-02-22T10:59:45.377Z,4.40
2023-02-22T11:01:40.854Z,5.18
2023-02-22T11:03:22.047Z,6.40
2023-02-22T11:04:56.885Z,5.75
2023-02-22T11:06:29.614Z,6.00
2023-02-22T11:08:24.432Z,5.75
2023-02-22T11:09:59.419Z,6.85
2023-02-22T11:11:31.617Z,6.65
2023-02-22T11:13:27.128Z,7.25
2023-02-22T11:15:19.708Z,6.90
2023-02-22T11:16:54.729Z,7.43
2023-02-22T11:18:35.992Z,6.93
2023-02-22T11:20:25.398Z,6.20
2023-02-22T11:22:10.295Z,6.38
2023-02-22T11:23:46.281Z,6.82
2023-02-22T11:25:22.259Z,6.35
2023-02-22T11:26:58.357Z,7.03
2023-02-22T11:28:32.875Z,6.30
2023-02-22T11:30:21.864Z,7.22
2023-02-22T11:31:55.843Z,7.07
2023-02-22T11:33:29.432Z,8.05
2023-02-22T11:35:29.727Z,6.95
2023-02-22T11:37:29.355Z,7.53
2023-02-22T11:39:45.056Z,6.65
2023-02-22T11:41:39.112Z,6.57
2023-02-22T11:43:16.081Z,6.68
2023-02-22T11:44:48.201Z,6.45
2023-02-22T11:46:23.501Z,7.00
2023-02-22T11:48:03.030Z,6.32
2023-02-22T11:49:38.509Z,6.13
2023-02-22T11:51:35.819Z,5.90
2023-02-22T11:53:17.295Z,5.68
2023-02-22T11:55:41.795Z,6.97
2023-02-22T11:57:46.823Z,7.15
2023-02-22T12:01:07.287Z,7.18
2023-02-22T12:03:20.924Z,7.07
2023-02-22T12:05:28.671Z,6.88
2023-02-22T12:07:00.706Z,6.25
2023-02-22T12:08:37.655Z,7.53
2023-02-22T12:10:15.568Z,6.28
2023-02-22T12:12:28.630Z,5.93
2023-02-22T12:14:25.664Z,6.60
2023-02-22T12:16:31.846Z,6.85
2023-02-22T12:18:46.000Z,6.97
2023-02-22T12:20:25.630Z,6.80
2023-02-22T12:22:03.102Z,6.75
2023-02-22T12:24:01.839Z,5.75
2023-02-22T12:25:36.832Z,6.95
2023-02-22T12:27:20.119Z,6.65
2023-02-22T12:29:01.510Z,6.80
2023-02-22T12:30:39.570Z,6.38
2023-02-22T12:32:30.190Z,5.60
2023-02-22T12:34:27.330Z,5.75
2023-02-22T12:36:00.697Z,5.68
2023-02-22T12:38:02.177Z,5.53
2023-02-22T12:39:55.322Z,6.18
2023-02-22T12:41:39.088Z,5.75
2023-02-22T12:43:18.448Z,5.53
2023-02-22T12:45:43.134Z,6.05
2023-02-22T12:47:21.479Z,6.43
2023-02-22T12:49:03.746Z,5.88
2023-02-22T12:50:37.812Z,5.53
2023-02-22T12:52:22.105Z,5.72
2023-02-22T12:54:06.609Z,5.90
2023-02-22T12:55:45.924Z,4.80
2023-02-22T12:57:28.888Z,4.80
2023-02-22T12:59:09.121Z,5.28
2023-02-22T13:00:55.105Z,6.10
2023-02-22T13:02:32.799Z,5.43
2023-02-22T13:04:19.512Z,6.00
2023-02-22T13:06:18.195Z,5.70
2023-02-22T13:08:30.798Z,5.57
2023-02-22T13:10:27.546Z,5.03
2023-02-22T13:12:06.734Z,4.60
2023-02-22T13:14:05.954Z,4.88
2023-02-22T13:16:22.226Z,6.25
2023-02-22T13:18:12.306Z,5.70
2023-02-22T13:19:46.983Z,5.50
2023-02-22T13:21:42.339Z,6.05
2023-02-22T13:23:14.387Z,5.53
2023-02-22T13:25:01.255Z,5.43
2023-02-22T13:26:48.095Z,5.22
2023-02-22T13:28:29.265Z,5.70
2023-02-22T13:30:04.252Z,5.10
2023-02-22T13:31:51.242Z,4.88
2023-02-22T13:33:47.611Z,5.20
2023-02-22T13:35:57.383Z,4.95
2023-02-22T13:37:47.536Z,5.15
2023-02-22T13:39:38.895Z,5.00
2023-02-22T13:41:20.389Z,4.95
2023-02-22T13:43:22.702Z,4.82
2023-02-22T13:45:10.049Z,5.05
2023-02-22T13:47:19.386Z,5.93
2023-02-22T13:49:01.160Z,5.28
2023-02-22T13:50:55.445Z,5.28
2023-02-22T13:52:31.312Z,5.68
2023-02-22T13:54:25.009Z,5.75
2023-02-22T13:57:51.704Z,5.97
2023-02-22T13:59:39.493Z,5.35
2023-02-22T14:01:40.552Z,4.50
2023-02-22T14:03:12.727Z,6.47
2023-02-22T14:04:44.908Z,6.53
2023-02-22T14:06:36.963Z,5.13
2023-02-22T14:08:25.453Z,6.20
2023-02-22T14:10:01.767Z,7.18
2023-02-22T14:11:34.950Z,5.88
2023-02-22T14:13:08.081Z,5.50
2023-02-22T14:15:28.820Z,4.93
2023-02-22T14:17:30.863Z,5.07
2023-02-22T14:19:13.506Z,4.63
2023-02-22T14:20:46.154Z,4.78
2023-02-22T14:22:27.867Z,4.65
2023-02-22T14:24:09.296Z,5.20
2023-02-22T14:25:43.825Z,5.18
2023-02-22T14:27:17.670Z,4.80
2023-02-22T14:28:50.461Z,5.53
2023-02-22T14:30:32.040Z,6.20
2023-02-22T14:32:11.078Z,5.68
2023-02-22T14:34:02.055Z,5.85
2023-02-22T14:35:49.973Z,5.85
2023-02-22T14:37:33.705Z,6.10
2023-02-22T14:39:31.764Z,5.88
2023-02-22T14:41:05.441Z,4.97
2023-02-22T14:42:44.231Z,6.22
2023-02-22T14:44:24.188Z,4.82
2023-02-22T14:46:00.454Z,6.10
2023-02-22T14:47:41.118Z,5.65
2023-02-22T14:49:19.058Z,6.25
2023-02-22T14:51:15.638Z,6.97
2023-02-22T14:53:25.422Z,5.25
2023-02-22T14:55:17.241Z,6.05
2023-02-22T14:57:14.802Z,6.20
2023-02-22T14:59:08.490Z,7.63
2023-02-22T15:02:15.088Z,6.95
2023-02-22T15:03:51.488Z,6.95
2023-02-22T15:05:34.916Z,5.80
2023-02-22T15:07:28.168Z,4.72
2023-02-22T15:09:14.627Z,5.82
2023-02-22T15:10:51.166Z,4.88
2023-02-22T15:12:31.250Z,4.90
2023-02-22T15:14:25.622Z,5.47
2023-02-22T15:16:02.136Z,5.95
2023-02-22T15:17:34.554Z,5.78
2023-02-22T15:19:09.587Z,5.68
2023-02-22T15:20:41.828Z,6.07
2023-02-22T15:22:23.345Z,6.43
2023-02-22T15:23:57.141Z,4.97
2023-02-22T15:25:31.385Z,6.28
2023-02-22T15:27:12.791Z,5.85
2023-02-22T15:28:45.510Z,6.03
2023-02-22T15:30:27.153Z,6.78
2023-02-22T15:31:59.374Z,4.95
2023-02-22T15:33:38.082Z,6.55
2023-02-22T15:35:17.197Z,6.25
2023-02-22T15:36:54.537Z,7.82
2023-02-22T15:38:29.558Z,6.32
2023-02-22T15:40:16.438Z,7.30
2023-02-22T15:41:48.573Z,6.60
2023-02-22T15:43:28.655Z,7.75
2023-02-22T15:45:01.351Z,7.55
2023-02-22T15:46:34.502Z,7.97
2023-02-22T15:48:11.336Z,7.40
2023-02-22T15:49:44.233Z,5.70
2023-02-22T15:51:17.966Z,7.15
2023-02-22T15:52:58.106Z,7.53
2023-02-22T15:54:37.920Z,7.38
2023-02-22T15:56:19.894Z,6.82
2023-02-22T15:57:52.113Z,7.03
2023-02-22T15:59:33.798Z,6.35
2023-02-22T16:01:20.795Z,6.30
2023-02-22T16:02:57.776Z,5.78
2023-02-22T16:04:31.105Z,6.45
2023-02-22T16:06:09.778Z,6.82
2023-02-22T16:07:49.591Z,7.10
2023-02-22T16:09:26.109Z,6.20
2023-02-22T16:11:01.259Z,6.90
2023-02-22T16:12:33.626Z,6.55
2023-02-22T16:14:27.340Z,6.80
2023-02-22T16:17:41.176Z,6.07
2023-02-22T16:19:44.161Z,7.65
2023-02-22T16:21:21.625Z,6.55
2023-02-22T16:22:57.724Z,7.68
2023-02-22T16:24:34.985Z,7.00
2023-02-22T16:26:20.416Z,6.50
2023-02-22T16:28:34.026Z,7.25
2023-02-22T16:30:25.072Z,6.43
2023-02-22T16:31:57.786Z,8.80
2023-02-22T16:33:33.859Z,7.85
2023-02-22T16:35:06.614Z,7.93
2023-02-22T16:36:47.753Z,7.75
2023-02-22T16:38:21.276Z,7.80
2023-02-22T16:39:53.540Z,9.10
2023-02-22T16:41:26.266Z,8.52
2023-02-22T16:43:04.368Z,10.38
2023-02-22T16:44:36.443Z,10.38
2023-02-22T16:46:08.597Z,9.98
2023-02-22T16:47:40.734Z,10.48
2023-02-22T16:49:13.648Z,10.45
2023-02-22T16:52:18.643Z,10.52
2023-02-22T16:55:25.172Z,8.10
2023-02-22T16:57:00.402Z,8.25
2023-02-22T16:58:35.054Z,9.85
2023-02-22T17:00:15.202Z,9.85
2023-02-22T17:01:47.393Z,11.02
2023-02-22T17:03:20.658Z,9.93
2023-02-22T17:04:52.975Z,12.20
2023-02-22T17:06:25.208Z,12.18
2023-02-22T17:07:57.816Z,11.27
2023-02-22T17:09:30.040Z,11.13
2023-02-22T17:11:03.163Z,11.35
2023-02-22T17:12:35.304Z,11.23
2023-02-22T17:14:07.741Z,11.35
2023-02-22T17:15:39.950Z,11.10
2023-02-22T17:17:15.763Z,12.80
2023-02-22T17:18:49.902Z,10.90
2023-02-22T17:20:31.546Z,11.50
2023-02-22T17:22:06.184Z,12.32
2023-02-22T17:23:38.396Z,12.02
2023-02-22T17:25:23.078Z,12.13
2023-02-22T17:26:57.508Z,11.80
2023-02-22T17:28:30.689Z,12.77
2023-02-22T17:30:02.930Z,10.85
2023-02-22T17:31:35.826Z,12.30
2023-02-22T17:33:09.721Z,9.15
2023-02-22T17:34:42.758Z,10.82
2023-02-22T17:36:14.971Z,9.15
2023-02-22T17:37:48.014Z,11.23
2023-02-22T17:39:20.232Z,9.30
2023-02-22T17:40:52.557Z,9.40
2023-02-22T17:42:25.121Z,10.30
2023-02-22T17:43:58.144Z,10.82
2023-02-22T17:45:30.766Z,10.15
2023-02-22T17:47:04.208Z,9.48
2023-02-22T17:48:36.511Z,11.98
2023-02-22T17:50:10.779Z,8.45
2023-02-22T17:51:43.158Z,9.70
2023-02-22T17:53:18.219Z,10.95
2023-02-22T17:54:51.229Z,10.75
2023-02-22T17:58:00.604Z,10.18
2023-02-22T17:59:32.847Z,10.68
2023-02-22T18:01:05.146Z,10.82
2023-02-22T18:02:37.262Z,11.10
2023-02-22T18:04:09.529Z,11.93
2023-02-22T18:05:47.540Z,9.10
2023-02-22T18:07:19.941Z,9.93
2023-02-22T18:08:55.773Z,9.80
2023-02-22T18:10:28.413Z,9.43
2023-02-22T18:12:00.481Z,10.88
2023-02-22T18:13:32.654Z,8.27
2023-02-22T18:15:05.985Z,8.25
2023-02-22T18:16:39.512Z,9.80
2023-02-22T18:18:12.466Z,8.63
2023-02-22T18:21:16.948Z,10.32
2023-02-22T18:22:49.144Z,9.57
2023-02-22T18:24:21.216Z,8.97
2023-02-22T18:26:08.942Z,8.20
2023-02-22T18:27:43.360Z,10.57
2023-02-22T18:29:15.562Z,8.48
2023-02-22T18:30:49.066Z,9.23
2023-02-22T18:32:21.266Z,9.50
2023-02-22T18:33:53.639Z,8.43
2023-02-22T18:35:25.940Z,9.90
2023-02-22T18:37:00.430Z,10.68
2023-02-22T18:38:32.858Z,10.02
2023-02-22T18:40:10.438Z,10.32
2023-02-22T18:41:42.911Z,9.10
2023-02-22T18:43:15.055Z,9.32
2023-02-22T18:44:47.266Z,8.00
2023-02-22T18:46:21.653Z,8.18
2023-02-22T18:47:54.041Z,7.97
2023-02-22T18:49:27.084Z,10.37
2023-02-22T18:51:05.830Z,8.50
2023-02-22T18:52:47.385Z,9.05
2023-02-22T18:54:19.890Z,8.02
2023-02-22T18:55:52.031Z,9.43
2023-02-22T18:57:24.706Z,9.60
2023-02-22T18:58:59.863Z,8.73
2023-02-22T19:00:35.000Z,9.95
2023-02-22T19:02:12.734Z,9.55
2023-02-22T19:03:47.289Z,11.05
2023-02-22T19:05:19.430Z,11.52
2023-02-22T19:06:54.518Z,9.43
2023-02-22T19:08:26.612Z,8.85
2023-02-22T19:09:59.281Z,9.25
2023-02-22T19:11:31.427Z,10.35
2023-02-22T19:13:03.798Z,8.30
2023-02-22T19:14:36.024Z,8.07
2023-02-22T19:16:08.294Z,7.45
2023-02-22T19:17:42.708Z,8.50
2023-02-22T19:19:20.826Z,9.13
2023-02-22T19:20:58.064Z,9.30
2023-02-22T19:22:32.835Z,10.93
2023-02-22T19:24:05.223Z,10.25
2023-02-22T19:25:41.123Z,10.45
2023-02-22T19:27:14.001Z,10.88
2023-02-22T19:30:18.874Z,11.00
2023-02-22T19:31:51.870Z,9.30
2023-02-22T19:33:26.114Z,9.50
2023-02-22T19:35:06.839Z,9.70
2023-02-22T19:36:47.063Z,9.57
2023-02-22T19:38:20.417Z,8.65
2023-02-22T19:39:52.497Z,9.25
2023-02-22T19:41:24.645Z,8.18
2023-02-22T19:42:57.588Z,7.80
2023-02-22T19:44:29.876Z,8.10
2023-02-22T19:46:06.467Z,9.23
2023-02-22T19:47:38.952Z,9.82
2023-02-22T19:49:11.020Z,10.35
2023-02-22T19:50:49.386Z,9.82
2023-02-22T19:52:21.478Z,9.40
2023-02-22T19:53:57.261Z,9.27
2023-02-22T19:55:32.358Z,8.07
2023-02-22T19:57:06.009Z,8.25
2023-02-22T19:58:39.892Z,8.27
2023-02-22T20:00:14.220Z,7.22
2023-02-22T20:01:46.315Z,8.57
2023-02-22T20:03:23.584Z,8.05
2023-02-22T20:04:55.829Z,7.72
2023-02-22T20:06:31.294Z,7.78
2023-02-22T20:08:03.436Z,9.43
2023-02-22T20:09:43.212Z,7.90
2023-02-22T20:11:15.319Z,8.02
2023-02-22T20:12:47.471Z,10.00
2023-02-22T20:14:23.463Z,7.97
2023-02-22T20:15:55.591Z,7.30
2023-02-22T20:17:27.917Z,7.78
2023-02-22T20:19:00.170Z,8.45
2023-02-22T20:20:33.574Z,7.15
2023-02-22T20:22:06.124Z,7.88
2023-02-22T20:23:41.511Z,7.65
2023-02-22T20:25:13.743Z,9.68
2023-02-22T20:26:46.917Z,8.57
2023-02-22T20:28:19.039Z,7.28
2023-02-22T20:29:51.081Z,8.88
2023-02-22T20:31:23.312Z,8.75
2023-02-22T20:32:55.615Z,13.30
2023-02-22T20:34:31.450Z,12.68
2023-02-22T20:36:06.764Z,10.70
2023-02-22T20:37:40.447Z,12.05
2023-02-22T20:39:14.135Z,10.93
2023-02-22T20:40:46.901Z,11.32
2023-02-22T20:42:19.137Z,10.38
2023-02-22T20:43:52.625Z,10.32
2023-02-22T20:45:24.871Z,10.07
2023-02-22T20:46:57.157Z,13.13
2023-02-22T20:48:29.797Z,12.30
2023-02-22T20:50:02.177Z,10.68
2023-02-22T20:51:35.501Z,12.02
2023-02-22T20:53:07.636Z,9.10
2023-02-22T20:54:39.674Z,10.13
2023-02-22T20:56:16.903Z,7.72
2023-02-22T20:57:49.090Z,8.48
2023-02-22T20:59:21.900Z,11.20
2023-02-22T21:00:54.245Z,8.80
2023-02-22T21:02:26.412Z,9.38
2023-02-22T21:04:02.883Z,10.77
2023-02-22T21:05:35.068Z,9.43
2023-02-22T21:07:07.175Z,11.48
2023-02-22T21:08:39.402Z,8.70
2023-02-22T21:10:11.543Z,9.35
2023-02-22T21:11:45.412Z,11.57
2023-02-22T21:14:49.706Z,10.35
2023-02-22T21:16:26.959Z,10.25
2023-02-22T21:17:59.244Z,10.40
2023-02-22T21:19:33.338Z,13.77
2023-02-22T21:21:10.517Z,13.65
2023-02-22T21:22:43.920Z,12.13
2023-02-22T21:24:16.156Z,12.45
2023-02-22T21:25:52.472Z,12.05
2023-02-22T21:27:24.554Z,11.27
2023-02-22T21:29:01.983Z,10.23
2023-02-22T21:30:34.353Z,11.70
2023-02-22T21:32:08.722Z,10.90
2023-02-22T21:33:42.412Z,10.32
2023-02-22T21:35:14.595Z,9.10
2023-02-22T21:36:47.276Z,9.73
2023-02-22T21:38:20.854Z,9.20
2023-02-22T21:39:52.976Z,8.43
2023-02-22T21:41:28.988Z,8.40
2023-02-22T21:43:01.322Z,10.07
2023-02-22T21:44:33.465Z,9.25
2023-02-22T21:46:07.654Z,10.43
2023-02-22T21:47:39.765Z,7.53
2023-02-22T21:49:12.024Z,9.88
2023-02-22T21:50:44.222Z,9.43
2023-02-22T21:52:16.743Z,9.15
2023-02-22T21:53:52.168Z,6.97
2023-02-22T21:55:24.408Z,7.82
2023-02-22T21:56:56.678Z,8.13
2023-02-22T21:58:30.912Z,8.40
2023-02-22T22:00:12.812Z,6.20